Time;durP1;ratioP1;P1;durP2;ratioP2;P2;SDS_P1;SDS_P2;PMS_P1;PMS_P2;Temp;Humidity;BMP_temperature;BMP_pressure;BME280_temperature;BME280_humidity;BME280_pressure;Samples;Min_cycle;Max_cycle;Signal;HPM_P1;HPM_P2
2022/12/03 00:01:46;;;;;;;38.17;11.57;;;;;;;1.22;100.00;102241.06;6245465;28;20045;-69
2022/12/03 00:04:49;;;;;;;30.25;10.73;;;;;;;1.17;100.00;102247.91;6246020;28;20050;-69
2022/12/03 00:07:50;;;;;;;23.77;9.18;;;;;;;1.18;100.00;102241.91;6246248;28;20077;-69
2022/12/03 00:10:52;;;;;;;26.75;10.13;;;;;;;1.11;100.00;102244.41;6245780;28;20520;-69
2022/12/03 00:13:53;;;;;;;27.33;10.88;;;;;;;1.13;100.00;102245.28;6246085;28;20045;-69
2022/12/03 00:16:55;;;;;;;17.00;8.95;;;;;;;0.97;100.00;102250.31;6245981;28;20045;-69
2022/12/03 00:19:57;;;;;;;30.75;11.10;;;;;;;1.15;100.00;102253.94;6246205;28;20501;-69
2022/12/03 00:22:59;;;;;;;29.90;10.70;;;;;;;1.05;100.00;102242.66;6245637;28;20432;-69
2022/12/03 00:26:00;;;;;;;33.20;11.27;;;;;;;1.10;100.00;102250.47;6246067;28;20057;-69
2022/12/03 00:29:02;;;;;;;29.67;9.77;;;;;;;1.06;100.00;102246.97;6245878;28;20045;-69
2022/12/03 00:32:03;;;;;;;31.70;11.07;;;;;;;1.09;100.00;102251.28;6245746;28;20052;-69
2022/12/03 00:35:07;;;;;;;29.98;10.43;;;;;;;1.15;100.00;102243.59;6245842;28;20054;-69
2022/12/03 00:38:08;;;;;;;29.58;10.18;;;;;;;1.15;100.00;102238.41;6245750;28;20523;-69
2022/12/03 00:41:10;;;;;;;25.70;9.10;;;;;;;1.12;100.00;102246.16;6245697;28;20053;-69
2022/12/03 00:44:12;;;;;;;24.48;9.20;;;;;;;1.04;100.00;102251.25;6245515;28;20409;-69
2022/12/03 00:47:13;;;;;;;43.30;10.23;;;;;;;1.08;100.00;102245.25;6248285;28;20055;-69
2022/12/03 00:50:16;;;;;;;29.90;9.48;;;;;;;1.05;100.00;102246.97;6250198;28;20052;-68
2022/12/03 00:53:18;;;;;;;21.27;8.15;;;;;;;0.95;100.00;102244.28;6249991;28;20049;-68
2022/12/03 00:56:20;;;;;;;33.33;11.27;;;;;;;0.90;100.00;102248.50;6249994;28;20048;-69
2022/12/03 00:59:21;;;;;;;38.75;10.50;;;;;;;0.97;100.00;102252.03;6249897;28;20527;-69
2022/12/03 01:02:23;;;;;;;23.75;10.15;;;;;;;1.01;100.00;102244.31;6249688;28;20052;-69
2022/12/03 01:05:26;;;;;;;33.38;11.15;;;;;;;0.90;100.00;102245.91;6249774;28;20045;-69
2022/12/03 01:08:27;;;;;;;35.75;11.13;;;;;;;0.90;100.00;102253.69;6249787;28;20106;-68
2022/12/03 01:11:38;;;;;;;28.08;9.63;;;;;;;0.90;100.00;102247.66;6249481;28;20053;-69
2022/12/03 01:14:39;;;;;;;36.40;9.93;;;;;;;0.88;100.00;102251.94;6249366;28;20597;-69
2022/12/03 01:17:41;;;;;;;36.72;11.02;;;;;;;0.95;100.00;102248.56;6249636;28;20528;-69
2022/12/03 01:20:44;;;;;;;30.17;9.85;;;;;;;0.93;100.00;102250.28;6249132;28;20530;-68
2022/12/03 01:23:45;;;;;;;37.92;12.10;;;;;;;0.87;100.00;102255.41;6249453;28;20481;-68
2022/12/03 01:26:47;;;;;;;29.52;11.18;;;;;;;0.83;100.00;102251.91;6249370;28;20052;-69
2022/12/03 01:29:48;;;;;;;28.73;11.15;;;;;;;0.78;100.00;102250.13;6249436;28;20053;-69
2022/12/03 01:32:49;;;;;;;27.38;10.70;;;;;;;0.78;100.00;102250.97;6249209;28;20045;-69
2022/12/03 01:35:51;;;;;;;38.55;11.43;;;;;;;0.75;100.00;102250.94;6248970;28;20422;-69
2022/12/03 01:38:53;;;;;;;34.95;10.38;;;;;;;0.76;100.00;102256.13;6249087;28;20398;-69
2022/12/03 01:41:55;;;;;;;28.25;11.60;;;;;;;0.76;100.00;102252.66;6248717;28;20052;-69
2022/12/03 01:44:58;;;;;;;33.85;11.90;;;;;;;0.67;100.00;102252.56;6249068;28;20050;-69
2022/12/03 01:48:00;;;;;;;48.00;13.40;;;;;;;0.71;100.00;102250.03;6248778;28;20053;-69
2022/12/03 01:51:03;;;;;;;38.60;11.20;;;;;;;0.72;100.00;102248.31;6248916;28;20049;-68
2022/12/03 01:54:05;;;;;;;30.05;10.32;;;;;;;0.72;100.00;102251.75;6248384;28;20053;-69
2022/12/03 01:57:18;;;;;;;27.67;9.68;;;;;;;0.76;100.00;102252.66;6248906;28;20053;-69
2022/12/03 02:00:22;;;;;;;36.28;12.35;;;;;;;0.70;100.00;102252.59;6248531;28;20501;-68
2022/12/03 02:03:25;;;;;;;40.67;12.82;;;;;;;0.73;100.00;102250.06;6247493;28;20049;-69
2022/12/03 02:06:29;;;;;;;37.00;11.95;;;;;;;0.68;100.00;102256.88;6234238;28;20056;-69
2022/12/03 02:09:31;;;;;;;42.83;13.13;;;;;;;0.64;100.00;102256.00;6247299;28;20056;-69
2022/12/03 02:12:37;;;;;;;33.55;14.05;;;;;;;0.74;100.00;102256.97;6248319;28;20045;-69
2022/12/03 02:15:40;;;;;;;45.97;14.13;;;;;;;0.64;100.00;102258.59;6240059;28;20050;-69
2022/12/03 02:18:42;;;;;;;44.33;14.05;;;;;;;0.61;100.00;102253.38;6223834;28;20045;-69
2022/12/03 02:21:54;;;;;;;43.90;12.95;;;;;;;0.57;100.00;102250.72;6223226;28;20639;-69
2022/12/03 02:25:08;;;;;;;40.45;11.30;;;;;;;0.65;100.00;102249.09;6230711;28;20045;-69
2022/12/03 02:28:10;;;;;;;32.13;11.88;;;;;;;0.59;100.00;102251.59;6235591;28;20050;-69
2022/12/03 02:31:11;;;;;;;37.78;13.00;;;;;;;0.63;100.00;102249.06;6223073;28;20420;-69
2022/12/03 02:34:38;;;;;;;30.88;11.27;;;;;;;0.62;100.00;102243.88;6223092;28;20069;-69
2022/12/03 02:37:40;;;;;;;31.60;12.25;;;;;;;0.55;100.00;102250.72;6223224;28;20498;-69
2022/12/03 02:40:44;;;;;;;42.83;14.85;;;;;;;0.65;100.00;102249.09;6223142;28;20057;-69
2022/12/03 02:43:46;;;;;;;32.20;12.35;;;;;;;0.66;100.00;102246.53;6223019;28;20057;-69
2022/12/03 02:46:47;;;;;;;34.30;12.82;;;;;;;0.64;100.00;102248.25;6222789;28;20046;-69
2022/12/03 02:49:49;;;;;;;36.58;13.10;;;;;;;0.60;100.00;102246.47;6222854;28;20049;-69
2022/12/03 02:52:54;;;;;;;37.03;11.65;;;;;;;0.65;100.00;102241.34;6222725;28;20049;-70
2022/12/03 02:56:01;;;;;;;34.70;12.95;;;;;;;0.53;100.00;102236.00;6222915;28;20046;-70
2022/12/03 02:59:05;;;;;;;33.83;11.57;;;;;;;0.47;100.00;102242.00;6222682;28;20494;-70
2022/12/03 03:02:10;;;;;;;44.17;13.90;;;;;;;0.48;100.00;102246.31;6222581;28;20049;-70
2022/12/03 03:05:14;;;;;;;35.10;12.93;;;;;;;0.58;100.00;102252.44;6222428;28;20546;-69
2022/12/03 03:08:18;;;;;;;41.72;12.82;;;;;;;0.61;100.00;102253.38;6222671;28;20053;-70
2022/12/03 03:11:21;;;;;;;31.13;12.75;;;;;;;0.42;100.00;102246.25;6222212;28;20057;-69
2022/12/03 03:14:22;;;;;;;36.03;11.85;;;;;;;0.41;100.00;102244.47;6222400;28;20045;-70
2022/12/03 03:17:24;;;;;;;41.50;13.70;;;;;;;0.39;100.00;102244.47;6222482;28;20061;-69
2022/12/03 03:20:25;;;;;;;39.83;13.63;;;;;;;0.42;100.00;102246.25;6222356;28;20057;-69
2022/12/03 03:23:27;;;;;;;43.30;13.50;;;;;;;0.34;100.00;102245.28;6222151;28;20046;-69
2022/12/03 03:26:30;;;;;;;32.30;11.48;;;;;;;0.36;100.00;102240.97;6222131;28;20054;-70
2022/12/03 03:29:33;;;;;;;37.33;12.95;;;;;;;0.34;100.00;102240.09;6222239;28;20050;-70
2022/12/03 03:32:35;;;;;;;37.92;13.13;;;;;;;0.33;100.00;102235.78;6221939;28;20203;-69
2022/12/03 03:35:38;;;;;;;35.58;12.82;;;;;;;0.27;100.00;102231.38;6220983;28;20050;-70
2022/12/03 03:38:40;;;;;;;31.65;10.52;;;;;;;0.31;100.00;102227.13;6222341;28;20052;-70
2022/12/03 03:41:45;;;;;;;32.30;11.35;;;;;;;0.29;100.00;102227.09;6221810;28;20415;-69
2022/12/03 03:44:47;;;;;;;42.45;12.00;;;;;;;0.32;100.00;102229.75;6221703;28;20046;-70
2022/12/03 03:47:49;;;;;;;30.45;11.70;;;;;;;0.28;100.00;102224.50;6222154;28;20557;-70
2022/12/03 03:50:51;;;;;;;27.27;11.68;;;;;;;0.37;100.00;102224.63;6221778;28;20065;-70
2022/12/03 03:53:53;;;;;;;39.88;12.50;;;;;;;0.34;100.00;102222.00;6221734;28;20050;-70
2022/12/03 03:56:56;;;;;;;39.83;11.85;;;;;;;0.44;100.00;102231.59;6221843;28;20050;-70
2022/12/03 03:59:58;;;;;;;32.17;13.85;;;;;;;0.34;100.00;102227.16;6221831;28;20050;-70
2022/12/03 04:02:59;;;;;;;38.17;11.15;;;;;;;0.44;100.00;102226.44;6221746;28;20144;-70
2022/12/03 04:06:01;;;;;;;38.03;12.45;;;;;;;0.34;100.00;102228.03;6221936;28;20053;-69
2022/12/03 04:09:02;;;;;;;31.35;11.23;;;;;;;0.39;100.00;102220.34;6221779;28;20425;-69
2022/12/03 04:15:25;;;;;;;33.15;11.82;;;;;;;0.22;100.00;102217.53;6221621;28;20057;-70
2022/12/03 04:18:45;;;;;;;40.60;11.93;;;;;;;0.25;100.00;102215.84;6221816;28;20058;-70
2022/12/03 04:38:24;;;;;;;35.42;15.20;;;;;;;0.23;100.00;102222.75;6226010;28;20413;-69
2022/12/03 04:41:25;;;;;;;35.88;12.70;;;;;;;0.27;100.00;102230.50;6225972;28;20057;-70
2022/12/03 04:44:34;;;;;;;41.47;14.43;;;;;;;0.19;100.00;102233.88;6225660;28;20053;-70
2022/12/03 04:47:36;;;;;;;31.15;12.80;;;;;;;0.20;100.00;102222.69;6225986;28;20053;-69
2022/12/03 04:50:37;;;;;;;43.70;13.43;;;;;;;0.21;100.00;102228.72;6225618;28;20413;-70
2022/12/03 04:53:39;;;;;;;35.60;12.25;;;;;;;0.11;100.00;102227.72;6225618;28;20050;-70
2022/12/03 04:56:40;;;;;;;39.65;13.43;;;;;;;0.22;100.00;102228.72;6226027;28;20054;-70
2022/12/03 04:59:43;;;;;;;27.00;11.70;;;;;;;0.24;100.00;102233.94;6225656;28;20060;-69
2022/12/03 05:02:44;;;;;;;45.55;12.98;;;;;;;0.26;100.00;102234.81;6225315;28;20057;-70
2022/12/03 05:05:46;;;;;;;37.90;13.82;;;;;;;0.23;100.00;102232.22;6225208;28;20391;-70
2022/12/03 05:08:47;;;;;;;41.40;13.02;;;;;;;0.25;100.00;102228.78;6225464;28;20046;-69
2022/12/03 05:11:49;;;;;;;32.40;15.80;;;;;;;0.22;100.00;102222.69;6225105;28;20064;-70
2022/12/03 05:14:52;;;;;;;41.63;13.68;;;;;;;0.28;100.00;102232.28;6225051;28;20054;-70
2022/12/03 05:17:53;;;;;;;43.38;14.52;;;;;;;0.17;100.00;102226.94;6225048;28;20057;-69
2022/12/03 05:20:54;;;;;;;50.42;15.10;;;;;;;0.15;100.00;102226.94;6224887;28;20426;-69
2022/12/03 05:23:56;;;;;;;48.60;15.32;;;;;;;0.14;100.00;102226.91;6224663;28;20046;-69
2022/12/03 05:26:57;;;;;;;37.83;12.57;;;;;;;0.12;100.00;102226.88;6225209;28;20057;-70
2022/12/03 05:30:00;;;;;;;31.77;13.35;;;;;;;0.12;100.00;102226.88;6224663;28;20513;-69
2022/12/03 05:33:02;;;;;;;43.03;15.52;;;;;;;0.14;100.00;102219.16;6224619;28;20045;-69
2022/12/03 05:36:03;;;;;;;29.00;11.25;;;;;;;0.21;100.00;102218.38;6224630;28;20050;-69
2022/12/03 05:39:05;;;;;;;38.97;13.23;;;;;;;0.21;100.00;102219.25;6224559;28;20049;-69
2022/12/03 05:45:28;;;;;;;31.40;11.43;;;;;;;0.18;100.00;102215.75;6224336;28;20053;-70
2022/12/03 05:48:30;;;;;;;35.50;11.20;;;;;;;0.22;100.00;102215.81;6224644;28;20045;-70
2022/12/03 05:51:31;;;;;;;39.83;11.75;;;;;;;0.19;100.00;102223.53;6224076;28;20497;-69
2022/12/03 05:54:33;;;;;;;33.50;12.18;;;;;;;0.15;100.00;102224.34;6245978;28;20068;-70
2022/12/03 05:57:34;;;;;;;35.30;11.52;;;;;;;-0.02;100.00;102221.53;6240417;28;20052;-69
2022/12/03 06:00:39;;;;;;;36.75;13.05;;;;;;;0.11;100.00;102216.53;6240245;28;20046;-70
2022/12/03 06:03:40;;;;;;;37.47;13.55;;;;;;;0.01;100.00;102214.69;6248569;28;20050;-69
2022/12/03 06:06:41;;;;;;;36.90;12.02;;;;;;;0.07;100.00;102219.91;6240264;28;20053;-69
2022/12/03 06:09:43;;;;;;;29.00;12.05;;;;;;;0.01;100.00;102219.84;6248460;28;20049;-69
2022/12/03 06:12:44;;;;;;;31.52;11.63;;;;;;;-0.02;100.00;102215.50;6248398;28;20045;-69
2022/12/03 06:15:47;;;;;;;32.55;11.65;;;;;;;-0.22;100.00;102225.56;6248156;28;20049;-69
2022/12/03 06:18:48;;;;;;;26.65;10.88;;;;;;;-0.21;100.00;102216.09;6248125;28;20073;-69
2022/12/03 06:21:50;;;;;;;27.95;11.35;;;;;;;-0.17;100.00;102223.03;6239860;28;20049;-69
2022/12/03 06:24:51;;;;;;;32.13;11.98;;;;;;;-0.22;100.00;102227.28;6247757;28;20045;-69
2022/12/03 06:27:52;;;;;;;29.70;10.20;;;;;;;-0.38;100.00;102219.25;6248211;28;20061;-69
2022/12/03 06:30:55;;;;;;;30.95;10.10;;;;;;;-0.29;100.00;102226.28;6247697;28;20050;-69
2022/12/03 06:33:57;;;;;;;33.55;12.82;;;;;;;-0.26;100.00;102228.94;6247688;28;20417;-69
2022/12/03 06:36:58;;;;;;;32.63;11.00;;;;;;;-0.22;100.00;102224.69;6247919;28;20060;-69
2022/12/03 06:39:59;;;;;;;34.40;10.50;;;;;;;-0.13;100.00;102222.25;6247918;28;20053;-69
2022/12/03 06:43:01;;;;;;;34.97;10.60;;;;;;;-0.16;100.00;102222.19;6247312;28;20431;-69
2022/12/03 06:46:04;;;;;;;35.17;11.57;;;;;;;-0.26;100.00;102216.88;6236338;28;20050;-69
2022/12/03 06:49:07;;;;;;;39.35;12.77;;;;;;;-0.16;100.00;102220.47;6222993;28;20053;-69
2022/12/03 06:52:09;;;;;;;31.25;11.35;;;;;;;-0.31;100.00;102217.66;6222570;28;20502;-69
2022/12/03 06:55:10;;;;;;;35.15;11.25;;;;;;;-0.28;100.00;102218.56;6222941;28;20050;-69
2022/12/03 06:58:12;;;;;;;31.33;11.75;;;;;;;-0.24;100.00;102213.44;6233594;28;20057;-69
2022/12/03 07:01:14;;;;;;;37.70;12.23;;;;;;;-0.19;100.00;102220.41;6230047;28;20085;-69
2022/12/03 07:04:16;;;;;;;36.17;12.30;;;;;;;-0.21;100.00;102210.91;6222368;28;20077;-69
2022/12/03 07:07:17;;;;;;;32.88;12.25;;;;;;;-0.26;100.00;102203.09;6222782;28;20060;-69
2022/12/03 07:10:19;;;;;;;32.38;10.90;;;;;;;-0.21;100.00;102206.63;6222381;28;20402;-69
2022/12/03 07:13:21;;;;;;;38.85;12.75;;;;;;;-0.13;100.00;102192.09;6222583;28;20056;-70
2022/12/03 07:16:24;;;;;;;31.05;11.73;;;;;;;-0.16;100.00;102202.38;6222283;28;20431;-69
2022/12/03 07:19:26;;;;;;;31.45;10.73;;;;;;;-0.20;100.00;102198.00;6222579;28;20046;-69
2022/12/03 07:22:27;;;;;;;36.63;10.63;;;;;;;-0.32;100.00;102190.06;6222135;28;20068;-69
2022/12/03 07:25:29;;;;;;;37.83;11.90;;;;;;;-0.40;100.00;102191.69;6222296;28;20045;-69
2022/12/03 07:28:30;;;;;;;32.50;13.18;;;;;;;-0.40;100.00;102187.41;6222183;28;20413;-69
2022/12/03 07:31:33;;;;;;;42.13;12.68;;;;;;;-0.29;100.00;102200.47;6222044;28;20505;-69
2022/12/03 07:34:34;;;;;;;22.73;10.40;;;;;;;-0.30;100.00;102194.44;6222111;28;20046;-69
2022/12/03 07:37:36;;;;;;;33.10;12.70;;;;;;;-0.26;100.00;102205.69;6222136;28;20050;-69
2022/12/03 07:40:37;;;;;;;35.38;13.75;;;;;;;-0.30;100.00;102191.84;6222078;28;20053;-69
2022/12/03 07:43:38;;;;;;;29.08;11.60;;;;;;;-0.25;100.00;102189.34;6221876;28;20235;-69
2022/12/03 07:46:42;;;;;;;29.90;10.90;;;;;;;-0.33;100.00;102198.69;6221918;28;20437;-69
2022/12/03 07:49:44;;;;;;;31.38;11.23;;;;;;;-0.23;100.00;102194.50;6221861;28;20394;-69
2022/12/03 07:52:45;;;;;;;33.33;11.75;;;;;;;-0.21;100.00;102198.00;6222026;28;20050;-69
2022/12/03 07:55:46;;;;;;;34.67;11.98;;;;;;;-0.15;100.00;102187.75;6223711;28;20049;-69
2022/12/03 07:58:48;;;;;;;31.10;10.70;;;;;;;-0.04;100.00;102196.53;6226967;28;20053;-69
2022/12/03 08:01:51;;;;;;;29.70;10.43;;;;;;;-0.02;100.00;102190.50;6226871;28;20057;-69
2022/12/03 08:04:52;;;;;;;32.95;12.15;;;;;;;-0.02;100.00;102198.25;6226457;28;20489;-69
2022/12/03 08:07:53;;;;;;;38.45;12.75;;;;;;;-0.08;100.00;102195.59;6227094;28;20046;-69
2022/12/03 08:10:55;;;;;;;36.38;11.55;;;;;;;-0.04;100.00;102192.22;6226499;28;20069;-69
2022/12/03 08:13:57;;;;;;;38.00;12.45;;;;;;;-0.03;100.00;102191.38;6226738;28;20050;-69
2022/12/03 08:17:00;;;;;;;34.60;13.70;;;;;;;-0.12;100.00;102185.22;6226649;28;20046;-69
2022/12/03 08:20:10;;;;;;;38.85;13.18;;;;;;;-0.09;100.00;102180.06;6226668;28;20081;-69
2022/12/03 08:23:14;;;;;;;28.00;11.07;;;;;;;-0.09;100.00;102186.13;6226320;28;20057;-69
2022/12/03 08:26:22;;;;;;;35.78;13.30;;;;;;;-0.07;100.00;102176.66;6226354;28;20052;-69
2022/12/03 08:29:24;;;;;;;24.05;11.20;;;;;;;-0.07;100.00;102188.72;6226378;28;20053;-69
2022/12/03 08:32:27;;;;;;;28.10;11.10;;;;;;;-0.11;100.00;102181.78;6226232;28;20061;-69
2022/12/03 08:35:31;;;;;;;25.92;10.95;;;;;;;-0.12;100.00;102182.63;6225985;28;20064;-70
2022/12/03 08:38:33;;;;;;;29.05;10.57;;;;;;;-0.10;100.00;102188.66;6225967;28;20423;-69
2022/12/03 08:44:55;;;;;;;33.35;11.30;;;;;;;-0.11;100.00;102182.63;6225734;28;20045;-70
2022/12/03 08:48:00;;;;;;;30.73;10.95;;;;;;;-0.19;100.00;102188.53;6225931;28;20050;-69
2022/12/03 08:51:06;;;;;;;35.90;12.40;;;;;;;-0.11;100.00;102180.06;6226461;28;20065;-69
2022/12/03 08:54:14;;;;;;;40.15;12.80;;;;;;;0.00;100.00;102177.63;6274512;22;20049;-69
2022/12/03 08:57:23;;;;;;;38.42;12.05;;;;;;;0.02;100.00;102172.47;6250064;28;20049;-70
2022/12/03 09:00:26;;;;;;;37.80;13.30;;;;;;;-0.01;100.00;102175.88;6250226;28;20049;-69
2022/12/03 09:03:30;;;;;;;31.50;10.93;;;;;;;-0.06;100.00;102174.94;6241762;28;20645;-72
2022/12/03 09:06:32;;;;;;;27.48;9.95;;;;;;;-0.05;100.00;102180.13;6225036;28;20049;-76
2022/12/03 09:09:33;;;;;;;31.38;12.32;;;;;;;-0.07;100.00;102171.50;6225520;28;20057;-76
2022/12/03 09:12:35;;;;;;;35.45;12.95;;;;;;;-0.12;100.00;102169.72;6225503;28;20052;-73
2022/12/03 09:15:36;;;;;;;41.20;12.98;;;;;;;-0.12;100.00;102169.72;6225224;28;20048;-76
2022/12/03 09:18:39;;;;;;;32.67;11.65;;;;;;;-0.11;100.00;102168.84;6225721;28;20057;-76
2022/12/03 09:21:40;;;;;;;28.77;10.60;;;;;;;-0.18;100.00;102165.34;6225214;28;20493;-76
2022/12/03 09:24:42;;;;;;;29.58;11.50;;;;;;;-0.18;100.00;102174.78;6224901;28;20407;-76
2022/12/03 09:27:43;;;;;;;27.27;11.05;;;;;;;-0.19;100.00;102166.16;6225219;28;20061;-75
2022/12/03 09:30:45;;;;;;;39.53;12.73;;;;;;;-0.12;100.00;102169.72;6224936;28;20061;-76
2022/12/03 09:33:47;;;;;;;36.22;11.45;;;;;;;-0.06;100.00;102159.44;6225029;28;20073;-76
2022/12/03 09:36:49;;;;;;;35.00;12.98;;;;;;;-0.01;100.00;102165.53;6224861;28;20061;-75
2022/12/03 09:39:50;;;;;;;30.45;11.98;;;;;;;-0.01;100.00;102161.22;6224885;28;20053;-76
2022/12/03 09:42:52;;;;;;;24.60;10.52;;;;;;;-0.06;100.00;102162.91;6224763;28;20528;-76
2022/12/03 09:45:53;;;;;;;30.85;12.77;;;;;;;0.07;100.00;102163.06;6224780;28;20054;-75
2022/12/03 09:48:56;;;;;;;31.38;10.48;;;;;;;0.02;100.00;102165.59;6224630;28;20056;-75
2022/12/03 09:52:00;;;;;;;30.38;11.25;;;;;;;0.04;100.00;102169.03;6224595;28;20050;-75
2022/12/03 09:55:10;;;;;;;29.30;12.77;;;;;;;0.06;100.00;102166.50;6222314;28;20045;-76
2022/12/03 09:58:14;;;;;;;32.03;12.60;;;;;;;-0.02;100.00;102159.50;6233331;28;20049;-75
2022/12/03 10:01:16;;;;;;;22.27;10.45;;;;;;;0.03;100.00;102162.16;6240509;28;20049;-75
2022/12/03 10:04:19;;;;;;;30.48;11.68;;;;;;;0.08;100.00;102151.88;6248405;28;20048;-71
2022/12/03 10:07:21;;;;;;;31.13;11.88;;;;;;;0.01;100.00;102140.59;6249182;28;20493;-76
2022/12/03 10:10:24;;;;;;;34.15;13.52;;;;;;;-0.03;100.00;102154.31;6249203;28;20049;-78
2022/12/03 10:13:28;;;;;;;32.90;12.20;;;;;;;-0.04;100.00;102148.28;6249650;28;20060;-75
2022/12/03 10:16:30;;;;;;;31.65;12.50;;;;;;;-0.05;100.00;102148.25;6248565;28;20075;-75
2022/12/03 10:19:36;;;;;;;39.53;11.18;;;;;;;0.01;100.00;102145.78;6247403;28;20481;-76
2022/12/03 10:22:37;;;;;;;28.40;9.70;;;;;;;-0.04;100.00;102137.97;6248094;28;20053;-71
2022/12/03 10:25:50;;;;;;;26.83;10.80;;;;;;;-0.08;100.00;102137.91;6248042;28;20493;-75
2022/12/03 10:28:52;;;;;;;28.85;11.82;;;;;;;-0.11;100.00;102143.03;6230678;28;20046;-73
2022/12/03 10:31:58;;;;;;;30.48;12.85;;;;;;;-0.15;100.00;102138.66;6233367;28;20061;-73
2022/12/03 10:35:12;;;;;;;30.70;10.57;;;;;;;-0.10;100.00;102137.00;6247475;28;20068;-74
2022/12/03 10:38:21;;;;;;;24.80;11.10;;;;;;;0.00;100.00;102128.53;6233566;28;20049;-74
2022/12/03 10:41:25;;;;;;;27.35;10.05;;;;;;;-0.11;100.00;102136.13;6223213;28;20089;-75
2022/12/03 10:44:29;;;;;;;25.98;9.95;;;;;;;-0.03;100.00;102125.91;6223136;28;20046;-75
2022/12/03 10:47:30;;;;;;;28.02;10.75;;;;;;;-0.03;100.00;102126.75;6221716;28;20050;-75
2022/12/03 10:50:34;;;;;;;29.25;11.43;;;;;;;0.06;100.00;102118.25;6231340;28;20045;-72
2022/12/03 10:53:38;;;;;;;28.63;11.77;;;;;;;0.01;100.00;102111.31;6238236;28;20052;-74
2022/12/03 10:56:40;;;;;;;22.17;9.10;;;;;;;0.02;100.00;102113.03;6229600;28;20057;-75
2022/12/03 10:59:42;;;;;;;32.38;10.68;;;;;;;0.04;100.00;102112.19;6221306;28;20091;-75
2022/12/03 11:02:44;;;;;;;29.90;12.13;;;;;;;0.06;100.00;102104.47;6221110;28;20053;-75
2022/12/03 11:05:47;;;;;;;30.10;10.38;;;;;;;0.17;100.00;102101.16;6221061;28;20405;-75
2022/12/03 11:08:51;;;;;;;30.63;11.95;;;;;;;0.25;100.00;102104.69;6221474;28;20049;-75
2022/12/03 11:11:52;;;;;;;24.48;10.23;;;;;;;0.35;100.00;102099.63;6222651;28;20050;-75
2022/12/03 11:15:14;;;;;;;24.23;10.95;;;;;;;0.36;100.00;102093.59;6222378;28;20061;-75
2022/12/03 11:18:51;;;;;;;27.73;9.52;;;;;;;0.35;100.00;102095.31;6222668;28;20053;-75
2022/12/03 11:22:32;;;;;;;29.08;9.18;;;;;;;0.39;100.00;102086.75;6222126;28;20053;-75
2022/12/03 11:25:50;;;;;;;30.38;11.30;;;;;;;0.25;100.00;102089.19;6215712;28;20046;-75
2022/12/03 11:28:54;;;;;;;28.45;11.40;;;;;;;0.30;100.00;102085.78;6222478;28;20053;-75
2022/12/03 11:31:55;;;;;;;25.83;10.45;;;;;;;0.29;100.00;102082.34;6222166;28;20045;-75
2022/12/03 11:34:56;;;;;;;25.92;11.20;;;;;;;0.20;100.00;102077.94;6222261;28;20045;-75
2022/12/03 11:38:40;;;;;;;27.25;11.23;;;;;;;0.18;100.00;102076.16;6222235;28;20425;-75
2022/12/03 11:42:36;;;;;;;34.30;12.20;;;;;;;0.13;100.00;102068.34;6188770;28;20058;-75
2022/12/03 11:45:38;;;;;;;29.50;10.70;;;;;;;0.12;100.00;102073.53;6222011;28;20125;-75
2022/12/03 11:48:44;;;;;;;25.65;10.18;;;;;;;0.09;100.00;102069.22;6222359;28;20050;-75
2022/12/03 11:51:45;;;;;;;27.40;10.60;;;;;;;0.14;100.00;102067.53;6221964;28;20050;-75
2022/12/03 11:54:49;;;;;;;34.42;10.95;;;;;;;0.16;100.00;102063.22;6198562;28;20092;-75
2022/12/03 11:57:59;;;;;;;26.13;9.77;;;;;;;0.19;100.00;102059.81;6210447;28;20061;-75
2022/12/03 12:01:03;;;;;;;26.73;12.25;;;;;;;0.22;100.00;102058.13;6218180;28;20057;-75
2022/12/03 12:04:05;;;;;;;28.10;11.63;;;;;;;0.08;100.00;102067.44;6197394;28;20046;-74
2022/12/03 12:07:07;;;;;;;30.00;10.93;;;;;;;0.12;100.00;102058.88;6197798;28;20490;-75
2022/12/03 12:10:09;;;;;;;41.13;15.52;;;;;;;0.12;100.00;102052.84;6197472;28;20054;-74
2022/12/03 12:13:27;;;;;;;35.55;14.38;;;;;;;0.10;100.00;102046.81;6197572;28;20053;-75
2022/12/03 12:16:41;;;;;;;37.72;14.65;;;;;;;-0.02;100.00;102043.22;6197450;28;20414;-74
2022/12/03 12:19:43;;;;;;;41.55;17.88;;;;;;;-0.02;100.00;102035.47;6197433;28;20057;-75
2022/12/03 12:22:44;;;;;;;43.50;17.42;;;;;;;0.09;100.00;102033.03;6197396;28;20053;-74
2022/12/03 12:25:45;;;;;;;39.47;15.05;;;;;;;0.14;100.00;102028.75;6197157;28;20062;-75
2022/12/03 12:28:48;;;;;;;35.03;12.98;;;;;;;0.17;100.00;102025.31;6197523;28;20053;-75
2022/12/03 12:31:50;;;;;;;24.15;10.77;;;;;;;0.19;100.00;102026.22;6196952;28;20050;-75
2022/12/03 12:34:56;;;;;;;25.17;11.35;;;;;;;0.12;100.00;102024.41;6197252;28;20047;-80
2022/12/03 12:38:11;;;;;;;23.15;9.00;;;;;;;0.14;100.00;102020.16;6231170;28;20076;-75
2022/12/03 12:41:12;;;;;;;29.88;11.75;;;;;;;0.17;100.00;102021.03;6233512;28;20046;-75
2022/12/03 12:44:15;;;;;;;29.17;11.38;;;;;;;0.09;100.00;102022.69;6246172;28;20056;-75
2022/12/03 12:47:16;;;;;;;34.60;14.65;;;;;;;0.12;100.00;102014.94;6242967;28;20505;-75
2022/12/03 12:50:19;;;;;;;23.98;10.93;;;;;;;0.14;100.00;102018.44;6242016;28;20050;-75
2022/12/03 12:53:23;;;;;;;28.90;10.57;;;;;;;0.18;100.00;102011.53;6250184;28;20049;-74
2022/12/03 12:56:26;;;;;;;29.30;12.25;;;;;;;0.28;100.00;102004.78;6250131;28;20049;-75
2022/12/03 12:59:29;;;;;;;27.80;11.20;;;;;;;0.28;100.00;102007.34;6224820;28;20077;-73
2022/12/03 13:02:42;;;;;;;32.53;13.25;;;;;;;0.19;100.00;102006.41;6241989;28;20049;-73
2022/12/03 13:05:46;;;;;;;33.80;11.40;;;;;;;0.31;100.00;102007.38;6225194;28;20049;-75
2022/12/03 13:08:50;;;;;;;39.72;12.57;;;;;;;0.38;100.00;102004.00;6206865;28;20625;-75
2022/12/03 13:11:52;;;;;;;32.85;13.52;;;;;;;0.39;100.00;102003.13;6201409;28;20494;-75
2022/12/03 13:14:59;;;;;;;44.90;17.45;;;;;;;0.34;100.00;102002.22;6235267;28;20057;-75
2022/12/03 13:18:01;;;;;;;43.90;17.63;;;;;;;0.33;100.00;101993.59;6249560;28;20046;-74
2022/12/03 13:21:15;;;;;;;34.15;12.02;;;;;;;0.31;100.00;101994.44;6249499;28;20049;-74
2022/12/03 13:24:39;;;;;;;42.05;17.27;;;;;;;0.22;100.00;101997.81;6249144;28;20512;-75
2022/12/03 13:27:40;;;;;;;31.40;11.90;;;;;;;0.20;100.00;101992.63;6243830;28;20056;-74
2022/12/03 13:30:43;;;;;;;31.85;12.48;;;;;;;0.22;100.00;101993.50;6249600;28;20508;-74
2022/12/03 13:33:44;;;;;;;32.47;13.65;;;;;;;0.21;100.00;101996.94;6235831;28;20069;-75
2022/12/03 13:36:47;;;;;;;32.60;12.35;;;;;;;0.22;100.00;101987.47;6224731;28;20525;-74
2022/12/03 13:39:50;;;;;;;30.30;12.75;;;;;;;0.19;100.00;101982.28;6224534;28;20057;-71
2022/12/03 13:42:53;;;;;;;35.85;13.75;;;;;;;0.26;100.00;101986.63;6224652;28;20056;-74
2022/12/03 13:45:56;;;;;;;25.98;10.63;;;;;;;0.41;100.00;101975.56;6224517;28;20545;-74
2022/12/03 13:48:57;;;;;;;27.95;11.43;;;;;;;0.38;100.00;101984.16;6224260;28;20049;-74
2022/12/03 13:51:58;;;;;;;45.35;15.38;;;;;;;0.34;100.00;101979.81;6224455;28;20049;-74
2022/12/03 13:55:03;;;;;;;33.13;10.63;;;;;;;0.31;100.00;101977.19;6223565;28;20425;-74
2022/12/03 13:58:04;;;;;;;34.13;13.05;;;;;;;0.39;100.00;101978.13;6224436;28;20065;-74
2022/12/03 14:01:07;;;;;;;33.70;12.95;;;;;;;0.25;100.00;101972.84;6224006;28;20053;-74
2022/12/03 14:04:09;;;;;;;32.08;10.38;;;;;;;0.22;100.00;101977.97;6224092;28;20049;-74
2022/12/03 14:07:10;;;;;;;27.38;10.32;;;;;;;0.20;100.00;101974.53;6220877;28;20044;-74
2022/12/03 14:10:12;;;;;;;27.55;11.43;;;;;;;0.30;100.00;101975.47;6225697;28;20042;-74
2022/12/03 14:13:13;;;;;;;30.00;11.65;;;;;;;0.25;100.00;101974.56;6232326;28;20042;-74
2022/12/03 14:16:16;;;;;;;29.02;11.48;;;;;;;0.32;100.00;101971.19;6236232;28;20057;-74
2022/12/03 14:19:18;;;;;;;29.83;10.20;;;;;;;0.29;100.00;101965.13;6248532;28;20060;-75